Lockhart, Alabama
Current Conditions -  °F | °C
As of 10:58 PM on Wednesday 26 Nov 2014 (Local Time) from K0J4 Reporting Station
Clear Clear  
Wind Chill: 46°   Ceiling: Unl
Heat Index: 49°   Visibility: 10mi
Dew Point: 40°   Wind: 7mph
Humidity: 71%   Direction: 220°SW
Pressure: 30.2"   Gusts: NA
Location:  31.01°N, 86.35°W
Report Text: K0J4 270458Z AUTO 22006KT 10SM CLR 09/04 A3020 RMK AO2 SLP223 T00940044 401720033 $
Loading
Personal Weather Stations






























Interactive Weather Map New forecast layout! Learn more

10-Day Weather Forecast

Advertisements
Track Severe Weather on mobile